Time;durP1;ratioP1;P1;durP2;ratioP2;P2;SDS_P1;SDS_P2;PMS_P1;PMS_P2;Temp;Humidity;BMP_temperature;BMP_pressure;BME280_temperature;BME280_humidity;BME280_pressure;Samples;Min_cycle;Max_cycle;Signal;HPM_P1;HPM_P2
2022/09/19 00:00:31;;;;;;;;;;;;;;;61.65;3.10;100265.31;5076586;28;19930;-63
2022/09/19 00:02:57;;;;;;;;;;;;;;;62.91;1.96;100261.25;5097905;28;19973;-61
2022/09/19 00:05:24;;;;;;;;;;;;;;;68.22;0.16;100272.03;5079715;28;20270;-63
2022/09/19 00:07:50;;;;;;;;;;;;;;;67.37;0.27;100262.91;5102569;28;19931;-61
2022/09/19 00:10:16;;;;;;;;;;;;;;;69.11;0.01;100271.28;5083964;28;20014;-62
2022/09/19 00:12:42;;;;;;;;;;;;;;;68.63;0.26;100263.75;5101504;28;19920;-62
2022/09/19 00:15:09;;;;;;;;;;;;;;;64.84;1.52;100267.97;5101014;28;20267;-61
2022/09/19 00:17:35;;;;;;;;;;;;;;;65.88;0.50;100264.78;5066646;28;20448;-62
2022/09/19 00:20:02;;;;;;;;;;;;;;;65.47;1.42;100259.94;5102647;28;20412;-62
2022/09/19 00:22:28;;;;;;;;;;;;;;;61.86;2.09;100262.25;5102061;28;19916;-62
2022/09/19 00:24:54;;;;;;;;;;;;;;;63.77;1.81;100261.69;5110332;28;19920;-62
2022/09/19 00:27:22;;;;;;;;;;;;;;;62.68;2.62;100262.09;5110561;28;20471;-63
2022/09/19 00:29:50;;;;;;;;;;;;;;;62.06;2.63;100262.72;5106695;28;19919;-61
2022/09/19 00:32:19;;;;;;;;;;;;;;;63.22;2.01;100260.81;5114372;28;19984;-61
2022/09/19 00:34:52;;;;;;;;;;;;;;;66.39;0.89;100261.84;5108779;28;19923;-61
2022/09/19 00:37:19;;;;;;;;;;;;;;;66.49;1.04;100261.56;5092920;28;19920;-62
2022/09/19 00:39:46;;;;;;;;;;;;;;;68.40;0.00;100262.22;5093140;28;20238;-62
2022/09/19 00:42:14;;;;;;;;;;;;;;;67.34;0.03;100264.25;5111535;28;20011;-62
2022/09/19 00:44:41;;;;;;;;;;;;;;;68.58;0.00;100278.47;5092603;28;19923;-62
2022/09/19 00:47:16;;;;;;;;;;;;;;;67.84;0.00;100280.28;5096780;28;19920;-63
2022/09/19 00:49:44;;;;;;;;;;;;;;;63.94;1.37;100275.13;5114866;28;19985;-63
2022/09/19 00:52:15;;;;;;;;;;;;;;;67.30;0.40;100264.88;5114705;28;19916;-60
2022/09/19 00:54:43;;;;;;;;;;;;;;;67.63;0.28;100266.13;5109629;28;20030;-63
2022/09/19 00:57:12;;;;;;;;;;;;;;;68.69;0.00;100269.88;5092953;28;19922;-62
2022/09/19 00:59:40;;;;;;;;;;;;;;;62.09;2.44;100271.06;5093966;28;19919;-63
2022/09/19 01:02:08;;;;;;;;;;;;;;;63.29;2.15;100269.34;5092394;28;19955;-63
2022/09/19 01:04:35;;;;;;;;;;;;;;;60.38;2.43;100262.09;5087419;28;19931;-63
2022/09/19 01:07:03;;;;;;;;;;;;;;;63.16;1.92;100263.38;5104658;28;19956;-64
2022/09/19 01:09:29;;;;;;;;;;;;;;;63.23;1.73;100262.34;5105194;28;19934;-63
2022/09/19 01:12:05;;;;;;;;;;;;;;;61.52;2.37;100264.56;5101345;28;19920;-63
2022/09/19 01:14:53;;;;;;;;;;;;;;;60.05;3.29;100253.16;5104388;28;19927;-63
2022/09/19 01:17:26;;;;;;;;;;;;;;;58.16;3.83;100259.59;5088282;28;20587;-65
2022/09/19 01:19:59;;;;;;;;;;;;;;;57.50;4.01;100254.44;5089701;28;19920;-63
2022/09/19 01:22:43;;;;;;;;;;;;;;;56.71;4.47;100250.78;5088516;28;20362;-64
2022/09/19 01:25:22;;;;;;;;;;;;;;;55.97;5.18;100260.47;5093572;28;19975;-64
2022/09/19 01:28:08;;;;;;;;;;;;;;;55.25;5.35;100255.47;5093369;28;19968;-63
2022/09/19 01:30:41;;;;;;;;;;;;;;;54.71;5.78;100252.00;5092714;28;20439;-65
2022/09/19 01:33:17;;;;;;;;;;;;;;;53.98;5.80;100261.16;5094084;28;19972;-64
2022/09/19 01:35:50;;;;;;;;;;;;;;;53.94;6.04;100252.06;5093027;28;19923;-62
2022/09/19 01:38:22;;;;;;;;;;;;;;;54.09;6.13;100259.28;5093235;28;19919;-62
2022/09/19 01:40:50;;;;;;;;;;;;;;;54.22;6.23;100261.94;5086953;28;19966;-63
2022/09/19 01:43:18;;;;;;;;;;;;;;;53.49;6.38;100260.72;5093307;28;19924;-62
2022/09/19 01:45:45;;;;;;;;;;;;;;;52.74;6.94;100257.69;5111060;28;20080;-64
2022/09/19 01:48:33;;;;;;;;;;;;;;;52.96;6.25;100264.94;5092436;28;19923;-62
2022/09/19 01:51:27;;;;;;;;;;;;;;;53.01;5.75;100269.06;5095291;28;19920;-63
2022/09/19 01:54:21;;;;;;;;;;;;;;;53.00;6.03;100268.28;5088739;28;20389;-63
2022/09/19 01:56:52;;;;;;;;;;;;;;;52.64;6.78;100270.41;5105379;28;19920;-61
2022/09/19 01:59:24;;;;;;;;;;;;;;;52.64;6.13;100274.06;5087994;28;20415;-64
2022/09/19 02:01:58;;;;;;;;;;;;;;;51.96;6.21;100269.28;5095016;28;19936;-63
2022/09/19 02:04:28;;;;;;;;;;;;;;;51.38;7.20;100274.66;5111040;28;20422;-63
2022/09/19 02:07:02;;;;;;;;;;;;;;;51.97;6.87;100270.03;5092282;28;19919;-62
2022/09/19 02:09:36;;;;;;;;;;;;;;;52.42;6.63;100278.38;5088141;28;19916;-61
2022/09/19 02:12:03;;;;;;;;;;;;;;;52.36;6.21;100283.53;5073520;28;19927;-63
2022/09/19 02:14:34;;;;;;;;;;;;;;;52.44;6.29;100281.50;5091820;28;20386;-63
2022/09/19 02:17:12;;;;;;;;;;;;;;;52.29;6.49;100280.59;5093021;28;19935;-62
2022/09/19 02:19:44;;;;;;;;;;;;;;;52.02;6.48;100291.53;5105128;28;19923;-63
2022/09/19 02:22:21;;;;;;;;;;;;;;;51.83;6.38;100295.44;5088446;28;20289;-64
2022/09/19 02:24:48;;;;;;;;;;;;;;;52.12;7.36;100290.50;5088056;28;19927;-63
2022/09/19 02:27:25;;;;;;;;;;;;;;;52.20;6.37;100302.94;5109305;28;19919;-60
2022/09/19 02:29:53;;;;;;;;;;;;;;;51.75;7.27;100306.19;5091018;28;19955;-60
2022/09/19 02:32:21;;;;;;;;;;;;;;;51.97;7.72;100296.16;5088321;28;20341;-61
2022/09/19 02:34:51;;;;;;;;;;;;;;;52.02;7.94;100303.13;5083125;28;20359;-61
2022/09/19 02:37:23;;;;;;;;;;;;;;;51.29;7.45;100310.63;5083688;28;20373;-61
2022/09/19 02:40:12;;;;;;;;;;;;;;;50.87;6.91;100313.34;5086824;28;19976;-61
2022/09/19 02:42:52;;;;;;;;;;;;;;;51.13;7.22;100312.56;5084345;28;19955;-62
2022/09/19 02:45:29;;;;;;;;;;;;;;;50.58;6.87;100323.09;5086265;28;19927;-61
2022/09/19 02:48:08;;;;;;;;;;;;;;;50.86;7.04;100319.69;5087623;28;20297;-60
2022/09/19 02:50:40;;;;;;;;;;;;;;;50.51;6.72;100335.34;5083511;28;20443;-61
2022/09/19 02:53:11;;;;;;;;;;;;;;;50.43;6.74;100333.09;5086304;28;19934;-61
2022/09/19 02:55:44;;;;;;;;;;;;;;;49.82;6.53;100349.31;5083878;28;19920;-63
2022/09/19 02:58:14;;;;;;;;;;;;;;;49.59;6.13;100348.88;5085779;28;20702;-62
2022/09/19 03:00:41;;;;;;;;;;;;;;;48.49;6.22;100343.81;5089340;28;19935;-62
2022/09/19 03:05:58;;;;;;;;;;;;;;;48.34;6.95;100357.84;5103899;27;19969;-62
2022/09/19 03:08:25;;;;;;;;;;;;;;;47.19;7.51;100359.53;5091049;28;20349;-62
2022/09/19 03:10:56;;;;;;;;;;;;;;;46.85;7.76;100362.50;5087494;28;19927;-61
2022/09/19 03:13:34;;;;;;;;;;;;;;;47.40;7.83;100362.84;5091492;28;20366;-63
2022/09/19 03:16:06;;;;;;;;;;;;;;;47.51;7.38;100368.59;5087517;28;19959;-62
2022/09/19 03:18:36;;;;;;;;;;;;;;;47.52;7.82;100370.94;5100803;28;19964;-61
2022/09/19 03:21:03;;;;;;;;;;;;;;;48.18;7.13;100364.50;5101421;28;19958;-61
2022/09/19 03:23:43;;;;;;;;;;;;;;;48.44;7.01;100368.50;5093559;27;19962;-61
2022/09/19 03:26:12;;;;;;;;;;;;;;;47.95;7.37;100370.44;5091538;28;20006;-62
2022/09/19 03:28:38;;;;;;;;;;;;;;;48.46;7.31;100367.94;5075008;28;19966;-62
2022/09/19 03:31:05;;;;;;;;;;;;;;;48.00;7.76;100381.16;5082089;28;19934;-61
2022/09/19 03:33:31;;;;;;;;;;;;;;;47.37;7.96;100387.72;5094582;28;19916;-62
2022/09/19 03:36:07;;;;;;;;;;;;;;;46.95;8.78;100391.78;5079935;28;19927;-63
2022/09/19 03:38:44;;;;;;;;;;;;;;;46.84;8.60;100394.66;5091558;28;19925;-61
2022/09/19 03:41:15;;;;;;;;;;;;;;;46.97;8.42;100392.81;5080695;28;20048;-62
2022/09/19 03:43:42;;;;;;;;;;;;;;;47.04;8.59;100393.56;5117617;28;19978;-62
2022/09/19 03:46:13;;;;;;;;;;;;;;;46.59;8.92;100399.38;5082493;28;20301;-64
2022/09/19 03:48:44;;;;;;;;;;;;;;;46.75;9.22;100398.59;5078600;28;19930;-65
2022/09/19 03:51:12;;;;;;;;;;;;;;;46.15;9.50;100406.69;5086635;28;19991;-63
2022/09/19 03:53:38;;;;;;;;;;;;;;;47.79;8.25;100406.66;5117001;28;20416;-63
2022/09/19 03:56:05;;;;;;;;;;;;;;;46.96;8.79;100417.13;5088445;28;20341;-61
2022/09/19 03:58:35;;;;;;;;;;;;;;;47.53;8.92;100415.69;5083839;28;19928;-62
2022/09/19 04:01:04;;;;;;;;;;;;;;;47.31;8.67;100412.09;5083012;28;19927;-64
2022/09/19 04:03:30;;;;;;;;;;;;;;;47.03;8.80;100418.69;5082990;28;20397;-63
2022/09/19 04:05:56;;;;;;;;;;;;;;;47.62;8.85;100425.34;5111159;28;19985;-63
2022/09/19 04:08:23;;;;;;;;;;;;;;;47.89;8.23;100424.44;5097234;28;19920;-63
2022/09/19 04:10:51;;;;;;;;;;;;;;;47.11;8.94;100428.34;5091709;27;20022;-63
2022/09/19 04:13:20;;;;;;;;;;;;;;;46.36;9.47;100435.97;5088944;28;19924;-64
2022/09/19 04:15:47;;;;;;;;;;;;;;;47.60;9.21;100439.50;5086176;28;20018;-63
2022/09/19 04:18:14;;;;;;;;;;;;;;;46.88;8.95;100450.66;5090855;28;19999;-65
2022/09/19 04:20:40;;;;;;;;;;;;;;;47.05;9.10;100444.09;5092288;28;20153;-64
2022/09/19 04:23:35;;;;;;;;;;;;;;;46.50;9.83;100445.63;5084849;28;20027;-63
2022/09/19 04:26:13;;;;;;;;;;;;;;;46.19;9.74;100446.66;5088246;28;20367;-64
2022/09/19 04:28:42;;;;;;;;;;;;;;;46.38;9.74;100448.50;5083741;28;19959;-64
2022/09/19 04:31:12;;;;;;;;;;;;;;;46.52;9.65;100454.56;5088076;28;19955;-64
2022/09/19 04:33:39;;;;;;;;;;;;;;;46.87;9.76;100443.31;5081953;28;19921;-64
2022/09/19 04:36:08;;;;;;;;;;;;;;;46.41;9.57;100458.19;5088834;28;19967;-62
2022/09/19 04:38:35;;;;;;;;;;;;;;;47.05;9.73;100470.75;5077812;28;19916;-62
2022/09/19 04:41:02;;;;;;;;;;;;;;;47.43;9.10;100465.47;5077612;28;19970;-64
2022/09/19 04:43:31;;;;;;;;;;;;;;;47.54;9.02;100474.84;5086564;28;19964;-64
2022/09/19 04:46:20;;;;;;;;;;;;;;;47.19;9.14;100489.84;5089451;28;19939;-65
2022/09/19 04:48:48;;;;;;;;;;;;;;;47.72;8.87;100481.34;5085703;28;19995;-61
2022/09/19 04:51:18;;;;;;;;;;;;;;;47.79;9.68;100487.34;5086857;28;20382;-64
2022/09/19 04:53:45;;;;;;;;;;;;;;;47.72;9.13;100481.34;5089780;28;20443;-65
2022/09/19 04:56:11;;;;;;;;;;;;;;;47.75;9.60;100481.06;5087872;28;20282;-62
2022/09/19 04:58:40;;;;;;;;;;;;;;;47.75;8.63;100495.47;5083112;28;19921;-64
2022/09/19 05:01:10;;;;;;;;;;;;;;;47.80;9.08;100491.00;5083116;28;19916;-63
2022/09/19 05:03:37;;;;;;;;;;;;;;;47.53;9.55;100484.03;5088280;28;20421;-61
2022/09/19 05:06:06;;;;;;;;;;;;;;;47.69;9.47;100482.41;5093831;28;19931;-64
2022/09/19 05:08:33;;;;;;;;;;;;;;;47.61;9.53;100493.72;5089839;28;20385;-63
2022/09/19 05:11:08;;;;;;;;;;;;;;;46.84;10.68;100496.13;5084210;28;19920;-64
2022/09/19 05:13:40;;;;;;;;;;;;;;;47.12;10.23;100498.22;5086114;28;20297;-63
2022/09/19 05:16:13;;;;;;;;;;;;;;;47.45;9.97;100492.41;5085745;28;19931;-63
2022/09/19 05:18:45;;;;;;;;;;;;;;;47.34;9.95;100491.66;5087031;28;19967;-61
2022/09/19 05:21:14;;;;;;;;;;;;;;;47.49;10.23;100495.03;5091789;28;19927;-63
2022/09/19 05:23:40;;;;;;;;;;;;;;;47.50;9.95;100500.28;5092159;28;19916;-63
2022/09/19 05:26:09;;;;;;;;;;;;;;;47.39;9.76;100494.50;5090238;28;19928;-62
2022/09/19 05:28:37;;;;;;;;;;;;;;;47.25;10.23;100492.75;5085473;28;20302;-64
2022/09/19 05:31:07;;;;;;;;;;;;;;;47.25;10.19;100489.84;5091176;28;19927;-64
2022/09/19 05:33:36;;;;;;;;;;;;;;;47.16;9.98;100493.00;5088861;28;19947;-62
2022/09/19 05:36:04;;;;;;;;;;;;;;;46.94;9.86;100500.34;5087744;28;19943;-63
2022/09/19 05:38:44;;;;;;;;;;;;;;;46.89;10.07;100495.38;5086242;28;19927;-63
2022/09/19 05:41:49;;;;;;;;;;;;;;;46.82;10.75;100495.09;5064630;28;20000;-63
2022/09/19 05:44:22;;;;;;;;;;;;;;;46.83;10.08;100505.28;5086919;28;20350;-63
2022/09/19 05:46:56;;;;;;;;;;;;;;;46.84;10.01;100506.88;5087527;28;19958;-62
2022/09/19 05:49:22;;;;;;;;;;;;;;;46.52;10.66;100501.34;5064658;28;19966;-62
2022/09/19 05:51:55;;;;;;;;;;;;;;;46.57;10.90;100503.44;5083602;28;19916;-63
2022/09/19 05:54:23;;;;;;;;;;;;;;;46.80;9.95;100510.00;5083041;28;19966;-62
2022/09/19 05:57:12;;;;;;;;;;;;;;;46.97;10.41;100507.13;5086173;28;19924;-62
2022/09/19 05:59:39;;;;;;;;;;;;;;;46.92;10.33;100508.72;5086617;28;19924;-63
2022/09/19 06:02:07;;;;;;;;;;;;;;;47.00;10.36;100517.59;5091842;28;20010;-62
2022/09/19 06:04:54;;;;;;;;;;;;;;;46.84;10.00;100513.41;5073358;28;19920;-63
2022/09/19 06:07:23;;;;;;;;;;;;;;;46.96;10.47;100519.94;5079496;28;19920;-63
2022/09/19 06:09:52;;;;;;;;;;;;;;;46.91;9.92;100515.00;5080832;28;19920;-63
2022/09/19 06:12:20;;;;;;;;;;;;;;;46.73;9.98;100519.13;5082372;28;19963;-63
2022/09/19 06:14:48;;;;;;;;;;;;;;;46.80;10.69;100518.63;5084900;28;20006;-62
2022/09/19 06:17:17;;;;;;;;;;;;;;;46.82;10.54;100516.03;5075969;28;19927;-62
2022/09/19 06:19:49;;;;;;;;;;;;;;;45.82;10.55;100512.84;5060497;28;19921;-63
2022/09/19 06:22:24;;;;;;;;;;;;;;;45.74;10.55;100519.06;5054353;28;19979;-63
2022/09/19 06:24:53;;;;;;;;;;;;;;;46.41;10.31;100515.69;5066926;28;19928;-63
2022/09/19 06:27:21;;;;;;;;;;;;;;;46.77;10.39;100508.19;5070160;28;19923;-62
2022/09/19 06:29:48;;;;;;;;;;;;;;;46.76;10.07;100515.25;5060815;28;20006;-63
2022/09/19 06:32:39;;;;;;;;;;;;;;;46.72;10.96;100511.81;5061574;28;19920;-63
2022/09/19 06:35:15;;;;;;;;;;;;;;;46.67;10.66;100515.47;5072318;28;20389;-63
2022/09/19 06:37:42;;;;;;;;;;;;;;;46.42;10.90;100517.25;5060118;28;20019;-63
2022/09/19 06:40:10;;;;;;;;;;;;;;;46.51;10.35;100527.75;5068514;28;19923;-63
2022/09/19 06:42:46;;;;;;;;;;;;;;;46.51;10.61;100534.28;5072323;28;19947;-63
2022/09/19 06:45:44;;;;;;;;;;;;;;;46.45;11.15;100530.59;5048566;28;19947;-62
2022/09/19 06:48:35;;;;;;;;;;;;;;;46.40;10.74;100536.34;5056165;28;19921;-62
2022/09/19 06:51:13;;;;;;;;;;;;;;;46.35;11.21;100529.25;5063747;28;20272;-62
2022/09/19 06:53:40;;;;;;;;;;;;;;;46.44;11.16;100534.00;5064229;28;19920;-62
2022/09/19 06:56:08;;;;;;;;;;;;;;;46.42;11.48;100540.28;5063809;28;20379;-63
2022/09/19 06:58:34;;;;;;;;;;;;;;;46.40;11.02;100533.47;5070246;28;20370;-63
2022/09/19 07:01:01;;;;;;;;;;;;;;;46.37;10.60;100536.06;5064035;28;19967;-64
2022/09/19 07:03:27;;;;;;;;;;;;;;;46.19;11.06;100535.75;5069131;28;19982;-62
2022/09/19 07:05:59;;;;;;;;;;;;;;;46.19;11.07;100539.41;5061730;28;19970;-62
2022/09/19 07:08:32;;;;;;;;;;;;;;;45.96;11.21;100543.44;5052216;28;19929;-63
2022/09/19 07:11:01;;;;;;;;;;;;;;;45.95;11.39;100539.00;5058077;28;19970;-62
2022/09/19 07:13:29;;;;;;;;;;;;;;;45.93;11.15;100533.00;5063873;28;19926;-62
2022/09/19 07:16:02;;;;;;;;;;;;;;;46.05;11.03;100528.91;5068068;28;20024;-62
2022/09/19 07:18:30;;;;;;;;;;;;;;;45.95;11.31;100536.13;5076813;28;20394;-62
2022/09/19 07:21:00;;;;;;;;;;;;;;;46.00;11.20;100541.13;5088886;28;19993;-62
2022/09/19 07:23:32;;;;;;;;;;;;;;;46.00;10.88;100546.88;5087313;28;19927;-62
2022/09/19 07:26:07;;;;;;;;;;;;;;;45.99;10.42;100542.44;5088789;28;20374;-61
2022/09/19 07:28:35;;;;;;;;;;;;;;;45.93;10.96;100553.88;5086615;28;20370;-62
2022/09/19 07:31:03;;;;;;;;;;;;;;;45.90;11.58;100551.28;5086522;28;20394;-61
2022/09/19 07:33:32;;;;;;;;;;;;;;;45.75;11.48;100551.44;5082130;28;20020;-62
2022/09/19 07:35:59;;;;;;;;;;;;;;;45.58;11.84;100553.41;5086198;28;19916;-61
2022/09/19 07:38:30;;;;;;;;;;;;;;;45.43;11.52;100563.00;5074247;28;20014;-61
2022/09/19 07:41:16;;;;;;;;;;;;;;;45.71;11.20;100554.56;5084390;28;19927;-61
2022/09/19 07:44:01;;;;;;;;;;;;;;;45.50;11.58;100553.13;5087826;28;19969;-61
2022/09/19 07:49:54;;;;;;;;;;;;;;;45.63;11.12;100561.28;5083151;28;19927;-61
2022/09/19 07:52:43;;;;;;;;;;;;;;;45.46;11.68;100555.44;5091590;28;19928;-62
2022/09/19 07:55:13;;;;;;;;;;;;;;;45.48;11.67;100553.63;5082536;28;19920;-61
2022/09/19 07:57:50;;;;;;;;;;;;;;;45.46;11.73;100552.56;5083346;28;19924;-61
2022/09/19 08:00:16;;;;;;;;;;;;;;;45.38;11.63;100565.81;5074494;28;19916;-61
2022/09/19 08:03:01;;;;;;;;;;;;;;;45.29;11.60;100566.81;5092302;28;19973;-61
2022/09/19 08:05:33;;;;;;;;;;;;;;;45.28;11.78;100555.84;5078384;28;19962;-60
2022/09/19 08:08:01;;;;;;;;;;;;;;;45.24;11.34;100572.47;5082577;28;19931;-61
2022/09/19 08:10:30;;;;;;;;;;;;;;;45.09;11.39;100561.94;5073292;28;20010;-61
2022/09/19 08:13:00;;;;;;;;;;;;;;;45.03;11.77;100555.34;5084962;28;20007;-61
2022/09/19 08:15:26;;;;;;;;;;;;;;;45.02;12.07;100550.13;5082454;28;19959;-61
2022/09/19 08:17:58;;;;;;;;;;;;;;;45.00;11.79;100556.38;5076735;28;19921;-61
2022/09/19 08:20:28;;;;;;;;;;;;;;;45.02;11.78;100553.78;5087422;28;19924;-61
2022/09/19 08:22:58;;;;;;;;;;;;;;;45.04;11.41;100559.78;5076702;28;20386;-61
2022/09/19 08:25:25;;;;;;;;;;;;;;;45.07;11.58;100558.78;5080736;28;19924;-62
2022/09/19 08:27:53;;;;;;;;;;;;;;;45.07;11.88;100561.66;5070648;28;20011;-61
2022/09/19 08:30:19;;;;;;;;;;;;;;;45.07;11.75;100561.66;5071952;28;19929;-61
2022/09/19 08:32:46;;;;;;;;;;;;;;;44.94;11.41;100549.03;5075067;28;19959;-61
2022/09/19 08:35:15;;;;;;;;;;;;;;;44.94;11.73;100549.03;5083585;28;19971;-60
2022/09/19 08:37:43;;;;;;;;;;;;;;;44.93;11.80;100553.19;5070676;28;20263;-61
2022/09/19 08:40:16;;;;;;;;;;;;;;;44.91;11.65;100547.97;5070581;28;20029;-61
2022/09/19 08:42:54;;;;;;;;;;;;;;;44.92;11.60;100560.22;5059746;28;19946;-61
2022/09/19 08:45:36;;;;;;;;;;;;;;;44.96;11.88;100555.81;5081187;28;19938;-61
2022/09/19 08:48:06;;;;;;;;;;;;;;;44.70;11.35;100555.00;5087394;28;19977;-60
2022/09/19 08:50:35;;;;;;;;;;;;;;;44.77;12.04;100557.44;5075657;28;20597;-61
2022/09/19 08:53:09;;;;;;;;;;;;;;;44.73;11.77;100571.22;5086640;28;20023;-60
2022/09/19 08:55:37;;;;;;;;;;;;;;;44.54;11.91;100567.91;5074004;28;19963;-62
2022/09/19 08:58:17;;;;;;;;;;;;;;;44.54;11.99;100573.66;5090731;28;19920;-61
2022/09/19 09:01:04;;;;;;;;;;;;;;;44.57;12.29;100570.53;5082634;28;19946;-61
2022/09/19 09:03:42;;;;;;;;;;;;;;;44.42;12.30;100566.97;5089728;28;20320;-61
2022/09/19 09:06:18;;;;;;;;;;;;;;;44.45;12.08;100568.03;5077822;28;19959;-62
2022/09/19 09:09:14;;;;;;;;;;;;;;;44.42;11.82;100569.81;5063009;28;19924;-61
2022/09/19 09:11:58;;;;;;;;;;;;;;;44.40;12.41;100577.34;5066471;28;19920;-62
2022/09/19 09:14:29;;;;;;;;;;;;;;;44.41;12.18;100574.00;5082143;28;19970;-61
2022/09/19 09:17:14;;;;;;;;;;;;;;;44.42;12.20;100581.28;5083897;27;19961;-61
2022/09/19 09:19:42;;;;;;;;;;;;;;;44.27;12.22;100574.84;5092191;28;20382;-61
2022/09/19 09:22:24;;;;;;;;;;;;;;;44.24;12.69;100570.91;5109377;27;19922;-61
2022/09/19 09:25:09;;;;;;;;;;;;;;;44.16;12.21;100568.97;5083559;28;19985;-61
2022/09/19 09:27:49;;;;;;;;;;;;;;;44.15;12.68;100568.19;5084520;28;19931;-61
2022/09/19 09:30:18;;;;;;;;;;;;;;;44.14;12.54;100565.84;5093209;28;20375;-62
2022/09/19 09:33:07;;;;;;;;;;;;;;;44.16;12.59;100568.97;5089247;28;19916;-62
2022/09/19 09:35:39;;;;;;;;;;;;;;;44.07;12.40;100577.72;5085252;28;20401;-62
2022/09/19 09:38:08;;;;;;;;;;;;;;;44.06;12.50;100576.13;5092754;28;19926;-61
2022/09/19 09:43:45;;;;;;;;;;;;;;;43.87;12.57;100582.13;5085476;28;19931;-62
2022/09/19 09:46:18;;;;;;;;;;;;;;;43.88;12.61;100577.97;5110211;27;19920;-62
2022/09/19 09:48:45;;;;;;;;;;;;;;;43.89;12.62;100573.84;5092143;28;19974;-62
2022/09/19 09:51:18;;;;;;;;;;;;;;;43.96;12.46;100567.66;5094272;27;20392;-62
2022/09/19 09:54:04;;;;;;;;;;;;;;;43.86;12.68;100571.19;5090501;28;20401;-63
2022/09/19 09:56:45;;;;;;;;;;;;;;;43.82;12.52;100574.28;5109898;27;19935;-62
2022/09/19 10:03:33;;;;;;;;;;;;;;;43.83;12.68;100580.78;5111103;27;19922;-63
2022/09/19 10:04:53;;;;;;;;;;;;;;;43.71;12.79;100572.03;5113474;27;19979;-62
2022/09/19 10:07:52;;;;;;;;;;;;;;;43.76;12.67;100570.53;5097556;28;20317;-62
2022/09/19 10:10:20;;;;;;;;;;;;;;;43.78;13.31;100573.66;5074143;27;19919;-62
2022/09/19 10:12:58;;;;;;;;;;;;;;;43.77;12.74;100568.44;5091350;28;19985;-62
2022/09/19 10:15:26;;;;;;;;;;;;;;;43.75;12.52;100573.88;5096520;27;19919;-62
2022/09/19 10:18:07;;;;;;;;;;;;;;;43.70;12.72;100561.06;5086788;28;19924;-63
2022/09/19 10:20:39;;;;;;;;;;;;;;;43.69;12.95;100566.00;5096112;28;19955;-62
2022/09/19 10:23:12;;;;;;;;;;;;;;;43.70;12.83;100563.94;5086781;28;19927;-61
2022/09/19 10:25:38;;;;;;;;;;;;;;;43.69;12.65;100563.16;5100002;27;19921;-62
2022/09/19 10:28:25;;;;;;;;;;;;;;;43.68;12.53;100563.63;5084611;28;19960;-61
2022/09/19 10:31:23;;;;;;;;;;;;;;;43.48;12.84;100561.50;5101746;28;20446;-62
2022/09/19 10:33:51;;;;;;;;;;;;;;;43.55;12.76;100563.94;5095221;28;19923;-62
2022/09/19 10:36:32;;;;;;;;;;;;;;;43.58;12.51;100562.16;5080612;27;19943;-63
2022/09/19 10:39:00;;;;;;;;;;;;;;;43.59;12.66;100575.19;5103053;28;19920;-62
2022/09/19 10:41:34;;;;;;;;;;;;;;;43.60;12.45;100573.91;5097731;27;20006;-62
2022/09/19 10:44:06;;;;;;;;;;;;;;;43.56;12.34;100576.19;5085011;28;19978;-62
2022/09/19 10:46:37;;;;;;;;;;;;;;;43.52;12.41;100584.97;5108994;28;19928;-63
2022/09/19 10:49:27;;;;;;;;;;;;;;;43.51;12.32;100576.91;5105925;27;20006;-61
2022/09/19 10:51:59;;;;;;;;;;;;;;;43.46;12.29;100578.41;5086452;28;19920;-61
2022/09/19 10:54:36;;;;;;;;;;;;;;;43.26;12.55;100581.94;5108627;27;19919;-61
2022/09/19 10:57:04;;;;;;;;;;;;;;;43.16;12.38;100579.69;5088278;28;19924;-62
2022/09/19 10:59:38;;;;;;;;;;;;;;;43.12;12.30;100580.69;5097262;27;19915;-61
2022/09/19 11:02:23;;;;;;;;;;;;;;;43.28;12.59;100579.38;5087530;27;19919;-62
2022/09/19 11:05:00;;;;;;;;;;;;;;;43.12;12.28;100586.41;5090184;28;19920;-62
2022/09/19 11:07:32;;;;;;;;;;;;;;;43.13;12.20;100582.25;5084303;28;20298;-61
2022/09/19 11:10:04;;;;;;;;;;;;;;;43.03;12.50;100583.63;5105601;27;19923;-61
2022/09/19 11:12:31;;;;;;;;;;;;;;;43.18;12.18;100582.84;5081800;27;20386;-62
2022/09/19 11:14:58;;;;;;;;;;;;;;;43.11;12.18;100584.03;5101843;28;19998;-62
2022/09/19 11:17:55;;;;;;;;;;;;;;;43.09;12.01;100580.84;5097084;27;19920;-61
2022/09/19 11:20:52;;;;;;;;;;;;;;;42.94;12.29;100577.25;5076206;28;19920;-61
2022/09/19 11:23:40;;;;;;;;;;;;;;;42.80;12.31;100579.56;5084990;28;19928;-63
2022/09/19 11:26:13;;;;;;;;;;;;;;;42.53;12.73;100588.41;5106892;28;19919;-61
2022/09/19 11:29:06;;;;;;;;;;;;;;;42.52;12.44;100579.03;5078658;28;20346;-62
2022/09/19 11:31:43;;;;;;;;;;;;;;;42.61;12.36;100581.03;5080745;28;20001;-61
2022/09/19 11:34:11;;;;;;;;;;;;;;;42.59;12.25;100588.53;5111440;28;20430;-62
2022/09/19 11:37:08;;;;;;;;;;;;;;;42.48;12.42;100577.63;5076693;28;19924;-60
2022/09/19 11:39:47;;;;;;;;;;;;;;;42.59;11.68;100586.44;5082700;28;20408;-62
2022/09/19 11:42:48;;;;;;;;;;;;;;;42.58;11.64;100586.94;5094250;28;19927;-61
2022/09/19 11:45:17;;;;;;;;;;;;;;;42.28;12.20;100589.69;5066947;28;19919;-61
2022/09/19 11:48:10;;;;;;;;;;;;;;;42.16;12.50;100591.53;5085324;28;20026;-61
2022/09/19 11:50:46;;;;;;;;;;;;;;;42.34;12.27;100589.78;5082117;28;19984;-62
2022/09/19 11:53:21;;;;;;;;;;;;;;;42.33;12.31;100588.22;5097425;28;20340;-61
2022/09/19 11:56:26;;;;;;;;;;;;;;;42.16;11.90;100588.66;5091446;28;19974;-62
2022/09/19 11:59:10;;;;;;;;;;;;;;;42.41;11.59;100587.38;5084228;28;19967;-62
2022/09/19 12:01:43;;;;;;;;;;;;;;;42.58;12.01;100593.44;5101409;28;19943;-61
2022/09/19 12:04:10;;;;;;;;;;;;;;;42.64;11.46;100594.34;5107585;28;20053;-62
2022/09/19 12:07:03;;;;;;;;;;;;;;;42.60;11.46;100595.81;5074504;28;19916;-62
2022/09/19 12:09:36;;;;;;;;;;;;;;;42.48;12.06;100597.63;5094363;28;19965;-61
2022/09/19 12:12:11;;;;;;;;;;;;;;;42.55;12.30;100597.25;5079041;28;19990;-60
2022/09/19 12:14:55;;;;;;;;;;;;;;;42.58;11.64;100599.16;5079762;28;19931;-61
2022/09/19 12:17:26;;;;;;;;;;;;;;;42.62;11.83;100594.03;5080810;28;19924;-61
2022/09/19 12:20:00;;;;;;;;;;;;;;;42.35;12.13;100599.94;5085276;28;19920;-60
2022/09/19 12:22:31;;;;;;;;;;;;;;;42.50;11.97;100609.38;5074258;28;19962;-60
2022/09/19 12:25:13;;;;;;;;;;;;;;;42.60;11.89;100613.75;5085391;28;19921;-61
2022/09/19 12:27:59;;;;;;;;;;;;;;;42.66;11.68;100620.34;5086938;28;19916;-61
2022/09/19 12:30:30;;;;;;;;;;;;;;;42.60;11.59;100613.75;5077298;28;19974;-61
2022/09/19 12:33:08;;;;;;;;;;;;;;;42.62;11.73;100616.91;5080890;28;19920;-61
2022/09/19 12:35:36;;;;;;;;;;;;;;;42.56;11.81;100612.38;5082899;28;19924;-61
2022/09/19 12:38:17;;;;;;;;;;;;;;;42.29;12.33;100621.91;5089815;28;20215;-62
2022/09/19 12:40:49;;;;;;;;;;;;;;;42.14;12.14;100622.63;5079800;28;19967;-64
2022/09/19 12:43:21;;;;;;;;;;;;;;;42.16;12.29;100619.28;5083260;28;19920;-61
2022/09/19 12:46:09;;;;;;;;;;;;;;;42.18;12.22;100623.25;5080496;28;19927;-62
2022/09/19 12:48:43;;;;;;;;;;;;;;;42.23;11.76;100625.44;5083138;28;20272;-62
2022/09/19 12:51:54;;;;;;;;;;;;;;;42.37;12.20;100632.47;5068734;28;19938;-62
2022/09/19 12:54:24;;;;;;;;;;;;;;;42.34;11.94;100638.38;5076132;28;19924;-61
2022/09/19 12:57:14;;;;;;;;;;;;;;;42.45;12.03;100641.47;5075766;28;20410;-61
2022/09/19 12:59:41;;;;;;;;;;;;;;;42.51;12.00;100636.69;5075302;28;20394;-61
2022/09/19 13:02:23;;;;;;;;;;;;;;;42.48;11.75;100635.59;5073987;28;19920;-61
2022/09/19 13:04:52;;;;;;;;;;;;;;;42.48;11.84;100643.34;5075871;28;19920;-61
2022/09/19 13:07:50;;;;;;;;;;;;;;;42.41;11.94;100643.72;5075575;28;19966;-62
2022/09/19 13:10:17;;;;;;;;;;;;;;;42.49;12.11;100644.97;5045863;28;20007;-61
2022/09/19 13:12:49;;;;;;;;;;;;;;;42.39;11.67;100644.22;5072855;28;20023;-62
2022/09/19 13:15:22;;;;;;;;;;;;;;;42.32;11.67;100643.78;5074152;28;19920;-63
2022/09/19 13:23:32;;;;;;;;;;;;;;;42.21;12.56;100653.72;5123193;27;19919;-63
2022/09/19 13:26:17;;;;;;;;;;;;;;;42.21;12.54;100661.50;5111361;28;19920;-63
2022/09/19 13:28:48;;;;;;;;;;;;;;;41.97;12.48;100661.44;5108156;28;19920;-62
2022/09/19 13:31:17;;;;;;;;;;;;;;;41.94;12.49;100663.19;5105814;28;20336;-63